PORT of AGIOS KONSTANTINOS

Land: Greece Land: Greece [GR]
Latitude / Longitude: 38.758095° / 22.866425° Toon op kaart
Lokale Tijd:  [UTC +3]
UN/LOCODE: GRAKO
Verwachte aankomsten: 3

Recente Aankomst- en Vertrektijden


Scheepsnaam
Aankomst (UTC)
Aankomst (LT)
Vertrek (UTC)
Vertrek (LT)
Vessel Type: Passagiersboot  OSIOS DAVID 2014-09-01 08:03:00 2014-09-01 11:03:00 2014-09-01 08:44:00 2014-09-01 11:44:00
Vessel Type: Passagiersboot  EXPRESS PEGASUS 2014-08-31 17:49:00 2014-08-31 20:49:00 2014-09-01 07:18:00 2014-09-01 10:18:00
Vessel Type: Passagiersboot  OSIOS DAVID 2014-09-01 06:06:00 2014-09-01 09:06:00 2014-09-01 06:35:00 2014-09-01 09:35:00
Vessel Type: Passagiersboot  EXPRESS PEGASUS 2014-08-30 18:00:00 2014-08-30 21:00:00 2014-08-31 07:21:00 2014-08-31 10:21:00
Vessel Type: HogeSnelheidsSchip  FLYINGCAT 6 2014-08-30 16:28:00 2014-08-30 19:28:00 2014-08-30 16:49:00 2014-08-30 19:49:00
Vessel Type: Passagiersboot  OSIOS DAVID 2014-08-30 16:07:00 2014-08-30 19:07:00 2014-08-30 16:38:00 2014-08-30 19:38:00
Vessel Type: Passagiersboot  OSIOS DAVID 2014-08-30 12:05:00 2014-08-30 15:05:00 2014-08-30 12:35:00 2014-08-30 15:35:00
Vessel Type: Passagiersboot  OSIOS DAVID 2014-08-30 08:05:00 2014-08-30 11:05:00 2014-08-30 08:48:00 2014-08-30 11:48:00
Vessel Type: Passagiersboot  EXPRESS PEGASUS 2014-08-29 18:34:00 2014-08-29 21:34:00 2014-08-30 07:12:00 2014-08-30 10:12:00
Vessel Type: Passagiersboot  OSIOS DAVID 2014-08-30 06:06:00 2014-08-30 09:06:00 2014-08-30 06:40:00 2014-08-30 09:40:00

Verwachte aankomsten


Scheepsnaam
Scheduled Arrival (UTC)
Geplande Aankomst (lokale tijd)
Geschatte Aankomsttijd (UTC)
Geschatte Aankomsttijd (Lokaal)
Vessel Type: HogeSnelheidsSchip  FLYING DOLPHIN ERATO 2014-09-01 14:55:00 2014-09-01 17:55:00 2014-09-01 14:58:00 2014-09-01 17:58:00
Vessel Type: HogeSnelheidsSchip  FLYINGCAT 6 2014-09-01 16:20:00 2014-09-01 19:20:00
Vessel Type: Passagiersboot  EXPRESS PEGASUS 2014-09-01 17:30:00 2014-09-01 20:30:00 2014-09-01 17:43:00 2014-09-01 20:43:00

Wind Forecast


    
Tijd (UTC)
Snelheid
Direction
Temperature
2014-09-01 12:00:00 9 knots 77° 25°C
2014-09-01 15:00:00 8 knots 65° 25°C
2014-09-01 18:00:00 3 knots 172° 25°C
2014-09-01 21:00:00 6 knots 226° 24°C
2014-09-02 00:00:00 7 knots 220° 24°C
2014-09-02 03:00:00 8 knots 178° 23°C
2014-09-02 06:00:00 12 knots 169° 22°C
2014-09-02 09:00:00 15 knots 185° 24°C
2014-09-02 15:00:00 11 knots 212° 26°C
2014-09-02 18:00:00 11 knots 212° 24°C
2014-09-02 21:00:00 11 knots 212° 23°C
2014-09-03 00:00:00 9 knots 229° 22°C
2014-09-03 03:00:00 7 knots 233° 22°C
2014-09-03 06:00:00 3 knots 248° 22°C
2014-09-03 09:00:00 2 knots 130° 23°C